sensor_id;sensor_type;location;lat;lon;timestamp;pressure;altitude;pressure_sealevel;temperature;humidity
68822;BME280;55834;50.870;4.606;2022-10-24T00:00:56;99691.91;;;14.39;52.10
68822;BME280;55834;50.870;4.606;2022-10-24T00:03:23;99686.25;;;14.45;52.17
68822;BME280;55834;50.870;4.606;2022-10-24T00:05:48;99685.66;;;13.95;53.21
68822;BME280;55834;50.870;4.606;2022-10-24T00:08:15;99697.59;;;14.03;53.24
68822;BME280;55834;50.870;4.606;2022-10-24T00:10:43;99693.88;;;13.91;53.41
68822;BME280;55834;50.870;4.606;2022-10-24T00:13:10;99696.22;;;14.26;52.71
68822;BME280;55834;50.870;4.606;2022-10-24T00:15:35;99694.25;;;14.29;53.03
68822;BME280;55834;50.870;4.606;2022-10-24T00:18:01;99695.66;;;13.44;54.55
68822;BME280;55834;50.870;4.606;2022-10-24T00:20:26;99699.00;;;14.38;52.71
68822;BME280;55834;50.870;4.606;2022-10-24T00:22:52;99695.63;;;14.51;51.80
68822;BME280;55834;50.870;4.606;2022-10-24T00:25:18;99692.81;;;14.23;52.10
68822;BME280;55834;50.870;4.606;2022-10-24T00:27:43;99687.09;;;13.71;53.33
68822;BME280;55834;50.870;4.606;2022-10-24T00:30:09;99701.25;;;13.86;53.57
68822;BME280;55834;50.870;4.606;2022-10-24T00:32:34;99690.28;;;13.92;52.95
68822;BME280;55834;50.870;4.606;2022-10-24T00:34:59;99698.72;;;13.68;54.02
68822;BME280;55834;50.870;4.606;2022-10-24T00:37:25;99692.09;;;13.61;53.93
68822;BME280;55834;50.870;4.606;2022-10-24T00:39:51;99684.13;;;13.91;52.80
68822;BME280;55834;50.870;4.606;2022-10-24T00:42:17;99683.69;;;13.99;52.49
68822;BME280;55834;50.870;4.606;2022-10-24T00:44:42;99701.31;;;13.70;53.54
68822;BME280;55834;50.870;4.606;2022-10-24T00:47:15;99688.13;;;13.52;53.92
68822;BME280;55834;50.870;4.606;2022-10-24T00:52:14;99682.94;;;14.11;52.55
68822;BME280;55834;50.870;4.606;2022-10-24T00:54:41;99685.72;;;14.24;52.38
68822;BME280;55834;50.870;4.606;2022-10-24T00:57:20;99683.59;;;14.45;51.04
68822;BME280;55834;50.870;4.606;2022-10-24T00:59:49;99681.41;;;13.77;52.76
68822;BME280;55834;50.870;4.606;2022-10-24T01:02:17;99680.28;;;14.11;52.11
68822;BME280;55834;50.870;4.606;2022-10-24T01:04:43;99675.84;;;13.82;52.53
68822;BME280;55834;50.870;4.606;2022-10-24T01:10:37;99676.31;;;14.04;52.56
68822;BME280;55834;50.870;4.606;2022-10-24T01:13:20;99688.09;;;13.84;52.50
68822;BME280;55834;50.870;4.606;2022-10-24T01:21:28;99683.56;;;14.00;51.87
68822;BME280;55834;50.870;4.606;2022-10-24T01:24:33;99684.06;;;13.77;52.88
68822;BME280;55834;50.870;4.606;2022-10-24T01:30:04;99698.69;;;13.84;52.48
68822;BME280;55834;50.870;4.606;2022-10-24T01:33:03;99690.78;;;13.98;52.21
68822;BME280;55834;50.870;4.606;2022-10-24T01:40:54;99694.81;;;14.20;51.48
68822;BME280;55834;50.870;4.606;2022-10-24T01:43:25;99689.50;;;13.28;53.78
68822;BME280;55834;50.870;4.606;2022-10-24T01:45:55;99703.78;;;13.41;53.84
68822;BME280;55834;50.870;4.606;2022-10-24T01:48:25;99699.16;;;13.45;53.74
68822;BME280;55834;50.870;4.606;2022-10-24T01:50:53;99705.28;;;13.77;52.51
68822;BME280;55834;50.870;4.606;2022-10-24T01:53:21;99701.31;;;14.14;52.12
68822;BME280;55834;50.870;4.606;2022-10-24T01:55:48;99703.72;;;13.27;54.32
68822;BME280;55834;50.870;4.606;2022-10-24T01:58:14;99699.78;;;13.96;52.90
68822;BME280;55834;50.870;4.606;2022-10-24T02:00:41;99700.72;;;13.49;53.71
68822;BME280;55834;50.870;4.606;2022-10-24T02:03:18;99701.06;;;13.27;54.02
68822;BME280;55834;50.870;4.606;2022-10-24T02:05:59;99703.81;;;13.87;53.20
68822;BME280;55834;50.870;4.606;2022-10-24T02:08:34;99706.25;;;13.76;53.17
68822;BME280;55834;50.870;4.606;2022-10-24T02:11:05;99704.31;;;13.94;52.64
68822;BME280;55834;50.870;4.606;2022-10-24T02:13:36;99703.25;;;13.50;53.79
68822;BME280;55834;50.870;4.606;2022-10-24T02:16:04;99703.19;;;13.68;53.75
68822;BME280;55834;50.870;4.606;2022-10-24T02:18:31;99705.56;;;14.03;52.99
68822;BME280;55834;50.870;4.606;2022-10-24T02:21:06;99707.53;;;13.69;53.38
68822;BME280;55834;50.870;4.606;2022-10-24T02:23:42;99707.44;;;14.31;51.80
68822;BME280;55834;50.870;4.606;2022-10-24T02:26:20;99696.91;;;14.43;51.48
68822;BME280;55834;50.870;4.606;2022-10-24T02:28:51;99715.41;;;13.39;54.11
68822;BME280;55834;50.870;4.606;2022-10-24T02:31:20;99711.34;;;14.09;52.42
68822;BME280;55834;50.870;4.606;2022-10-24T02:33:48;99708.94;;;14.35;51.77
68822;BME280;55834;50.870;4.606;2022-10-24T02:36:18;99713.13;;;13.94;52.69
68822;BME280;55834;50.870;4.606;2022-10-24T02:38:47;99708.06;;;13.75;53.20
68822;BME280;55834;50.870;4.606;2022-10-24T02:41:19;99703.31;;;14.11;52.25
68822;BME280;55834;50.870;4.606;2022-10-24T02:43:48;99705.41;;;13.75;52.67
68822;BME280;55834;50.870;4.606;2022-10-24T02:46:15;99702.41;;;13.50;54.31
68822;BME280;55834;50.870;4.606;2022-10-24T02:48:44;99717.72;;;13.13;55.33
68822;BME280;55834;50.870;4.606;2022-10-24T02:51:13;99702.25;;;13.05;55.60
68822;BME280;55834;50.870;4.606;2022-10-24T02:53:39;99715.84;;;13.15;54.89
68822;BME280;55834;50.870;4.606;2022-10-24T02:56:05;99710.38;;;13.50;54.80
68822;BME280;55834;50.870;4.606;2022-10-24T02:58:31;99713.78;;;13.68;53.99
68822;BME280;55834;50.870;4.606;2022-10-24T03:00:56;99711.41;;;13.16;55.32
68822;BME280;55834;50.870;4.606;2022-10-24T03:03:21;99689.69;;;13.41;54.93
68822;BME280;55834;50.870;4.606;2022-10-24T03:05:47;99698.69;;;14.14;52.95
68822;BME280;55834;50.870;4.606;2022-10-24T03:08:13;99693.34;;;13.54;54.59
68822;BME280;55834;50.870;4.606;2022-10-24T03:10:39;99705.22;;;13.31;55.33
68822;BME280;55834;50.870;4.606;2022-10-24T03:13:05;99713.47;;;13.26;55.30
68822;BME280;55834;50.870;4.606;2022-10-24T03:15:30;99696.59;;;13.59;53.83
68822;BME280;55834;50.870;4.606;2022-10-24T03:17:55;99700.72;;;13.65;54.34
68822;BME280;55834;50.870;4.606;2022-10-24T03:20:21;99695.31;;;13.50;54.87
68822;BME280;55834;50.870;4.606;2022-10-24T03:22:46;99693.97;;;13.59;54.70
68822;BME280;55834;50.870;4.606;2022-10-24T03:25:11;99696.09;;;13.98;53.57
68822;BME280;55834;50.870;4.606;2022-10-24T03:27:37;99697.13;;;13.96;53.38
68822;BME280;55834;50.870;4.606;2022-10-24T03:30:03;99699.31;;;13.73;54.09
68822;BME280;55834;50.870;4.606;2022-10-24T03:32:28;99704.03;;;13.52;54.71
68822;BME280;55834;50.870;4.606;2022-10-24T03:34:54;99700.94;;;14.06;53.24
68822;BME280;55834;50.870;4.606;2022-10-24T03:37:19;99708.22;;;13.72;53.89
68822;BME280;55834;50.870;4.606;2022-10-24T03:39:45;99704.19;;;13.81;54.11
68822;BME280;55834;50.870;4.606;2022-10-24T03:42:11;99701.13;;;13.73;54.56
68822;BME280;55834;50.870;4.606;2022-10-24T03:44:36;99700.03;;;13.29;55.42
68822;BME280;55834;50.870;4.606;2022-10-24T03:47:01;99686.69;;;12.83;57.00
68822;BME280;55834;50.870;4.606;2022-10-24T03:49:27;99688.41;;;13.32;55.51
68822;BME280;55834;50.870;4.606;2022-10-24T03:51:52;99687.19;;;12.74;56.83
68822;BME280;55834;50.870;4.606;2022-10-24T03:54:17;99684.00;;;12.68;57.50
68822;BME280;55834;50.870;4.606;2022-10-24T03:56:43;99674.13;;;13.35;55.82
68822;BME280;55834;50.870;4.606;2022-10-24T03:59:09;99682.91;;;13.67;54.67
68822;BME280;55834;50.870;4.606;2022-10-24T04:01:34;99670.63;;;13.80;54.68
68822;BME280;55834;50.870;4.606;2022-10-24T04:04:00;99670.78;;;13.47;55.53
68822;BME280;55834;50.870;4.606;2022-10-24T04:06:25;99690.88;;;13.67;55.12
68822;BME280;55834;50.870;4.606;2022-10-24T04:08:51;99691.56;;;13.39;56.06
68822;BME280;55834;50.870;4.606;2022-10-24T04:11:16;99696.84;;;13.39;56.15
68822;BME280;55834;50.870;4.606;2022-10-24T04:13:42;99699.44;;;13.56;55.26
68822;BME280;55834;50.870;4.606;2022-10-24T04:16:07;99701.84;;;13.29;56.50
68822;BME280;55834;50.870;4.606;2022-10-24T04:18:33;99710.13;;;13.54;56.18
68822;BME280;55834;50.870;4.606;2022-10-24T04:20:58;99708.31;;;12.92;57.56
68822;BME280;55834;50.870;4.606;2022-10-24T04:23:24;99693.97;;;13.43;56.13
68822;BME280;55834;50.870;4.606;2022-10-24T04:25:49;99695.94;;;13.56;55.76
68822;BME280;55834;50.870;4.606;2022-10-24T04:28:15;99715.28;;;13.88;54.59
68822;BME280;55834;50.870;4.606;2022-10-24T04:30:40;99712.31;;;13.78;54.69
68822;BME280;55834;50.870;4.606;2022-10-24T04:33:05;99698.09;;;13.17;56.63
68822;BME280;55834;50.870;4.606;2022-10-24T04:35:31;99699.44;;;13.86;54.84
68822;BME280;55834;50.870;4.606;2022-10-24T04:37:56;99719.78;;;13.24;56.25
68822;BME280;55834;50.870;4.606;2022-10-24T04:40:21;99718.09;;;13.23;56.55
68822;BME280;55834;50.870;4.606;2022-10-24T04:42:47;99720.59;;;12.93;57.23
68822;BME280;55834;50.870;4.606;2022-10-24T04:45:12;99722.84;;;13.16;56.63
68822;BME280;55834;50.870;4.606;2022-10-24T04:47:37;99735.09;;;13.03;56.79
68822;BME280;55834;50.870;4.606;2022-10-24T04:50:03;99720.53;;;13.73;55.33
68822;BME280;55834;50.870;4.606;2022-10-24T04:52:29;99722.00;;;13.79;54.48
68822;BME280;55834;50.870;4.606;2022-10-24T04:54:54;99718.34;;;13.18;57.16
68822;BME280;55834;50.870;4.606;2022-10-24T04:57:20;99718.56;;;13.14;57.09
68822;BME280;55834;50.870;4.606;2022-10-24T04:59:45;99718.22;;;13.20;56.79
68822;BME280;55834;50.870;4.606;2022-10-24T05:02:10;99722.75;;;13.02;57.17
68822;BME280;55834;50.870;4.606;2022-10-24T05:04:36;99709.94;;;13.10;57.08
68822;BME280;55834;50.870;4.606;2022-10-24T05:07:01;99707.41;;;13.40;56.12
68822;BME280;55834;50.870;4.606;2022-10-24T05:09:26;99719.44;;;13.14;56.80
68822;BME280;55834;50.870;4.606;2022-10-24T05:11:55;99728.75;;;13.53;55.59
68822;BME280;55834;50.870;4.606;2022-10-24T05:14:21;99730.13;;;12.46;58.70
68822;BME280;55834;50.870;4.606;2022-10-24T05:16:47;99726.38;;;13.32;56.40
68822;BME280;55834;50.870;4.606;2022-10-24T05:19:14;99736.53;;;13.24;56.23
68822;BME280;55834;50.870;4.606;2022-10-24T05:21:40;99736.38;;;13.27;56.50
68822;BME280;55834;50.870;4.606;2022-10-24T05:24:05;99734.56;;;13.12;56.58
68822;BME280;55834;50.870;4.606;2022-10-24T05:26:31;99737.00;;;12.83;57.49
68822;BME280;55834;50.870;4.606;2022-10-24T05:28:56;99735.75;;;13.06;57.28
68822;BME280;55834;50.870;4.606;2022-10-24T05:31:21;99740.09;;;12.41;58.90
68822;BME280;55834;50.870;4.606;2022-10-24T05:33:47;99742.13;;;12.86;57.47
68822;BME280;55834;50.870;4.606;2022-10-24T05:36:12;99739.88;;;13.28;56.48
68822;BME280;55834;50.870;4.606;2022-10-24T05:38:37;99748.13;;;12.90;57.56
68822;BME280;55834;50.870;4.606;2022-10-24T05:41:03;99747.09;;;13.58;56.10
68822;BME280;55834;50.870;4.606;2022-10-24T05:43:28;99735.09;;;13.03;56.71
68822;BME280;55834;50.870;4.606;2022-10-24T05:45:53;99748.59;;;12.65;58.02
68822;BME280;55834;50.870;4.606;2022-10-24T05:48:19;99745.63;;;12.71;58.04
68822;BME280;55834;50.870;4.606;2022-10-24T05:50:44;99743.66;;;13.56;55.64
68822;BME280;55834;50.870;4.606;2022-10-24T05:53:09;99743.38;;;13.44;55.93
68822;BME280;55834;50.870;4.606;2022-10-24T05:55:35;99753.03;;;13.14;56.52
68822;BME280;55834;50.870;4.606;2022-10-24T05:58:01;99753.63;;;12.35;58.67
68822;BME280;55834;50.870;4.606;2022-10-24T06:00:26;99764.97;;;12.89;57.48
68822;BME280;55834;50.870;4.606;2022-10-24T06:02:52;99754.56;;;12.69;57.70
68822;BME280;55834;50.870;4.606;2022-10-24T06:05:17;99760.97;;;12.98;57.06
68822;BME280;55834;50.870;4.606;2022-10-24T06:07:44;99753.63;;;13.19;56.75
68822;BME280;55834;50.870;4.606;2022-10-24T06:10:11;99759.94;;;13.16;56.46
68822;BME280;55834;50.870;4.606;2022-10-24T06:12:36;99763.13;;;13.39;56.16
68822;BME280;55834;50.870;4.606;2022-10-24T06:15:02;99764.16;;;12.71;57.75
68822;BME280;55834;50.870;4.606;2022-10-24T06:17:28;99770.16;;;12.91;57.33
68822;BME280;55834;50.870;4.606;2022-10-24T06:19:54;99777.75;;;13.14;56.60
68822;BME280;55834;50.870;4.606;2022-10-24T06:22:19;99777.56;;;12.68;57.80
68822;BME280;55834;50.870;4.606;2022-10-24T06:24:48;99779.84;;;13.07;57.35
68822;BME280;55834;50.870;4.606;2022-10-24T06:27:13;99791.75;;;13.00;57.99
68822;BME280;55834;50.870;4.606;2022-10-24T06:29:39;99784.06;;;13.12;57.24
68822;BME280;55834;50.870;4.606;2022-10-24T06:32:05;99784.09;;;13.27;56.55
68822;BME280;55834;50.870;4.606;2022-10-24T06:34:30;99785.38;;;13.20;56.93
68822;BME280;55834;50.870;4.606;2022-10-24T06:36:56;99781.13;;;13.00;57.58
68822;BME280;55834;50.870;4.606;2022-10-24T06:39:21;99793.59;;;12.48;58.15
68822;BME280;55834;50.870;4.606;2022-10-24T06:41:46;99809.69;;;13.11;57.48
68822;BME280;55834;50.870;4.606;2022-10-24T06:44:12;99798.66;;;12.70;58.17
68822;BME280;55834;50.870;4.606;2022-10-24T06:46:37;99798.56;;;13.04;57.33
68822;BME280;55834;50.870;4.606;2022-10-24T06:49:02;99807.41;;;12.87;58.11
68822;BME280;55834;50.870;4.606;2022-10-24T06:51:28;99811.59;;;13.09;57.44
68822;BME280;55834;50.870;4.606;2022-10-24T06:53:53;99823.31;;;13.21;56.28
68822;BME280;55834;50.870;4.606;2022-10-24T06:56:19;99823.22;;;13.22;56.87
68822;BME280;55834;50.870;4.606;2022-10-24T06:58:44;99832.13;;;13.37;56.35
68822;BME280;55834;50.870;4.606;2022-10-24T07:01:21;99835.97;;;13.16;57.12
68822;BME280;55834;50.870;4.606;2022-10-24T07:03:47;99833.59;;;13.43;56.69
68822;BME280;55834;50.870;4.606;2022-10-24T07:06:21;99835.19;;;13.94;55.04
68822;BME280;55834;50.870;4.606;2022-10-24T07:08:46;99847.53;;;13.30;56.49
68822;BME280;55834;50.870;4.606;2022-10-24T07:11:12;99855.69;;;13.43;56.56
68822;BME280;55834;50.870;4.606;2022-10-24T07:13:38;99871.09;;;13.52;56.10
68822;BME280;55834;50.870;4.606;2022-10-24T07:16:04;99856.16;;;13.83;55.53
68822;BME280;55834;50.870;4.606;2022-10-24T07:18:30;99868.59;;;13.98;55.04
68822;BME280;55834;50.870;4.606;2022-10-24T07:21:01;99867.28;;;14.06;54.97
68822;BME280;55834;50.870;4.606;2022-10-24T07:23:27;99868.09;;;14.38;54.25
68822;BME280;55834;50.870;4.606;2022-10-24T07:25:52;99875.34;;;13.88;55.71
68822;BME280;55834;50.870;4.606;2022-10-24T07:28:17;99872.75;;;14.03;55.34
68822;BME280;55834;50.870;4.606;2022-10-24T07:30:43;99871.91;;;13.70;56.51
68822;BME280;55834;50.870;4.606;2022-10-24T07:33:08;99882.63;;;13.36;57.37
68822;BME280;55834;50.870;4.606;2022-10-24T07:35:33;99885.78;;;14.07;55.83
68822;BME280;55834;50.870;4.606;2022-10-24T07:37:59;99884.41;;;13.84;56.47
68822;BME280;55834;50.870;4.606;2022-10-24T07:40:24;99881.69;;;14.02;55.62
68822;BME280;55834;50.870;4.606;2022-10-24T07:42:50;99891.63;;;13.16;58.00
68822;BME280;55834;50.870;4.606;2022-10-24T07:45:15;99904.09;;;13.80;56.31
68822;BME280;55834;50.870;4.606;2022-10-24T07:47:40;99896.31;;;14.09;56.22
68822;BME280;55834;50.870;4.606;2022-10-24T07:50:06;99896.91;;;14.46;55.06
68822;BME280;55834;50.870;4.606;2022-10-24T07:52:32;99902.59;;;14.38;54.82
68822;BME280;55834;50.870;4.606;2022-10-24T07:54:57;99918.81;;;14.49;55.20
68822;BME280;55834;50.870;4.606;2022-10-24T07:57:23;99919.00;;;14.46;55.49
68822;BME280;55834;50.870;4.606;2022-10-24T07:59:49;99917.47;;;14.72;55.00
68822;BME280;55834;50.870;4.606;2022-10-24T08:02:15;99920.91;;;14.74;54.62
68822;BME280;55834;50.870;4.606;2022-10-24T08:04:41;99921.44;;;14.65;54.11
68822;BME280;55834;50.870;4.606;2022-10-24T08:07:07;99926.19;;;15.04;53.46
68822;BME280;55834;50.870;4.606;2022-10-24T08:09:42;99935.69;;;14.94;53.78
68822;BME280;55834;50.870;4.606;2022-10-24T08:12:08;99929.41;;;14.95;53.43
68822;BME280;55834;50.870;4.606;2022-10-24T08:14:35;99936.59;;;14.93;54.13
68822;BME280;55834;50.870;4.606;2022-10-24T08:17:00;99943.06;;;14.89;53.59
68822;BME280;55834;50.870;4.606;2022-10-24T08:19:26;99942.66;;;14.51;54.45
68822;BME280;55834;50.870;4.606;2022-10-24T08:21:51;99954.00;;;14.21;55.42
68822;BME280;55834;50.870;4.606;2022-10-24T08:24:17;99949.63;;;14.98;53.71
68822;BME280;55834;50.870;4.606;2022-10-24T08:26:43;99953.59;;;14.60;54.40
68822;BME280;55834;50.870;4.606;2022-10-24T08:29:08;99940.84;;;14.81;54.67
68822;BME280;55834;50.870;4.606;2022-10-24T08:31:38;99958.94;;;14.91;54.40
68822;BME280;55834;50.870;4.606;2022-10-24T08:34:04;99959.25;;;14.22;55.83
68822;BME280;55834;50.870;4.606;2022-10-24T08:36:32;99957.88;;;14.63;54.67
68822;BME280;55834;50.870;4.606;2022-10-24T08:38:58;99963.19;;;14.15;55.11
68822;BME280;55834;50.870;4.606;2022-10-24T08:41:35;99959.66;;;14.62;54.51
68822;BME280;55834;50.870;4.606;2022-10-24T08:44:03;99948.78;;;14.97;53.58
68822;BME280;55834;50.870;4.606;2022-10-24T08:46:40;99959.97;;;14.72;53.63
68822;BME280;55834;50.870;4.606;2022-10-24T08:49:23;99956.59;;;14.84;53.93
68822;BME280;55834;50.870;4.606;2022-10-24T08:51:57;99973.38;;;14.23;55.17
68822;BME280;55834;50.870;4.606;2022-10-24T08:54:28;99953.66;;;15.19;53.51
68822;BME280;55834;50.870;4.606;2022-10-24T08:56:55;99956.84;;;14.34;54.33
68822;BME280;55834;50.870;4.606;2022-10-24T08:59:25;99966.44;;;14.52;54.12
68822;BME280;55834;50.870;4.606;2022-10-24T09:02:20;99957.72;;;15.10;52.74
68822;BME280;55834;50.870;4.606;2022-10-24T09:05:16;99962.25;;;14.94;53.54
68822;BME280;55834;50.870;4.606;2022-10-24T09:07:45;99966.09;;;15.34;52.55
68822;BME280;55834;50.870;4.606;2022-10-24T09:10:32;99969.09;;;14.98;52.78
68822;BME280;55834;50.870;4.606;2022-10-24T09:12:59;99962.25;;;14.94;52.56
68822;BME280;55834;50.870;4.606;2022-10-24T09:15:28;99974.34;;;15.59;52.68
68822;BME280;55834;50.870;4.606;2022-10-24T09:17:55;99970.50;;;14.89;53.23
68822;BME280;55834;50.870;4.606;2022-10-24T09:20:26;99967.47;;;14.96;52.73
68822;BME280;55834;50.870;4.606;2022-10-24T09:22:55;99976.53;;;15.38;51.97
68822;BME280;55834;50.870;4.606;2022-10-24T09:25:26;99973.19;;;15.48;51.54
68822;BME280;55834;50.870;4.606;2022-10-24T09:27:56;99958.97;;;15.49;51.57
68822;BME280;55834;50.870;4.606;2022-10-24T09:30:24;99972.28;;;15.64;51.33
68822;BME280;55834;50.870;4.606;2022-10-24T09:32:52;99972.22;;;14.91;52.45
68822;BME280;55834;50.870;4.606;2022-10-24T09:35:21;99983.75;;;15.36;50.79
68822;BME280;55834;50.870;4.606;2022-10-24T09:37:49;99979.31;;;15.79;50.27
68822;BME280;55834;50.870;4.606;2022-10-24T09:43:17;100004.69;;;15.99;50.21
68822;BME280;55834;50.870;4.606;2022-10-24T09:48:20;100008.44;;;15.38;51.30
68822;BME280;55834;50.870;4.606;2022-10-24T09:50:47;100008.56;;;15.65;51.87
68822;BME280;55834;50.870;4.606;2022-10-24T09:53:37;100010.09;;;14.94;50.37
68822;BME280;55834;50.870;4.606;2022-10-24T09:56:10;100018.16;;;15.53;50.64
68822;BME280;55834;50.870;4.606;2022-10-24T09:58:35;100018.41;;;15.34;50.68
68822;BME280;55834;50.870;4.606;2022-10-24T10:03:32;100034.72;;;15.87;49.08
68822;BME280;55834;50.870;4.606;2022-10-24T10:06:02;100038.44;;;15.84;49.54
68822;BME280;55834;50.870;4.606;2022-10-24T10:08:32;100048.50;;;14.88;51.68
68822;BME280;55834;50.870;4.606;2022-10-24T10:11:01;100040.78;;;15.46;51.02
68822;BME280;55834;50.870;4.606;2022-10-24T10:13:27;100049.75;;;16.02;50.32
68822;BME280;55834;50.870;4.606;2022-10-24T10:16:01;100048.56;;;15.49;50.11
68822;BME280;55834;50.870;4.606;2022-10-24T10:21:16;100054.41;;;15.98;48.94
68822;BME280;55834;50.870;4.606;2022-10-24T10:23:53;100057.72;;;15.13;50.98
68822;BME280;55834;50.870;4.606;2022-10-24T10:26:41;100055.34;;;15.69;50.93
68822;BME280;55834;50.870;4.606;2022-10-24T10:31:47;100063.00;;;15.59;50.54
68822;BME280;55834;50.870;4.606;2022-10-24T10:34:21;100064.19;;;15.39;49.95
68822;BME280;55834;50.870;4.606;2022-10-24T10:45:21;100080.38;;;16.38;48.54
68822;BME280;55834;50.870;4.606;2022-10-24T10:48:24;100066.88;;;15.53;50.63
68822;BME280;55834;50.870;4.606;2022-10-24T10:58:55;100062.88;;;16.05;49.59
68822;BME280;55834;50.870;4.606;2022-10-24T11:01:42;100071.69;;;15.91;49.60
68822;BME280;55834;50.870;4.606;2022-10-24T11:04:21;100070.84;;;15.91;50.11
68822;BME280;55834;50.870;4.606;2022-10-24T11:09:43;100059.75;;;15.98;49.54
68822;BME280;55834;50.870;4.606;2022-10-24T11:12:22;100062.69;;;16.22;48.75
68822;BME280;55834;50.870;4.606;2022-10-24T11:17:43;100075.28;;;15.62;50.75
68822;BME280;55834;50.870;4.606;2022-10-24T11:20:18;100085.75;;;15.34;50.76
68822;BME280;55834;50.870;4.606;2022-10-24T11:22:52;100087.06;;;14.96;51.43
68822;BME280;55834;50.870;4.606;2022-10-24T11:25:34;100088.78;;;15.12;51.64
68822;BME280;55834;50.870;4.606;2022-10-24T11:28:25;100077.31;;;14.64;52.32
68822;BME280;55834;50.870;4.606;2022-10-24T11:30:57;100081.44;;;15.32;51.44
68822;BME280;55834;50.870;4.606;2022-10-24T11:33:31;100083.28;;;15.76;50.26
68822;BME280;55834;50.870;4.606;2022-10-24T11:36:10;100088.69;;;16.19;50.38
68822;BME280;55834;50.870;4.606;2022-10-24T11:38:45;100078.38;;;15.98;50.52
68822;BME280;55834;50.870;4.606;2022-10-24T11:43:47;100089.75;;;15.72;50.75
68822;BME280;55834;50.870;4.606;2022-10-24T11:46:16;100094.59;;;15.35;51.11
68822;BME280;55834;50.870;4.606;2022-10-24T11:49:18;100097.88;;;15.08;52.46
68822;BME280;55834;50.870;4.606;2022-10-24T11:51:59;100115.88;;;15.03;52.83
68822;BME280;55834;50.870;4.606;2022-10-24T11:54:34;100109.72;;;15.03;54.57
68822;BME280;55834;50.870;4.606;2022-10-24T11:57:08;100098.16;;;15.50;55.15
68822;BME280;55834;50.870;4.606;2022-10-24T11:59:35;100116.72;;;15.36;55.60
68822;BME280;55834;50.870;4.606;2022-10-24T12:07:58;100139.72;;;15.21;56.52
68822;BME280;55834;50.870;4.606;2022-10-24T12:10:39;100165.41;;;14.57;59.81
68822;BME280;55834;50.870;4.606;2022-10-24T12:16:18;100136.59;;;14.49;60.91
68822;BME280;55834;50.870;4.606;2022-10-24T12:18:48;100148.03;;;14.34;61.82
68822;BME280;55834;50.870;4.606;2022-10-24T12:21:18;100130.56;;;14.12;61.26
68822;BME280;55834;50.870;4.606;2022-10-24T12:23:56;100127.03;;;14.29;61.60
68822;BME280;55834;50.870;4.606;2022-10-24T12:26:30;100133.53;;;14.73;60.77
68822;BME280;55834;50.870;4.606;2022-10-24T12:28:58;100134.84;;;14.97;59.71
68822;BME280;55834;50.870;4.606;2022-10-24T12:31:35;100138.50;;;14.79;60.14
68822;BME280;55834;50.870;4.606;2022-10-24T12:34:38;100143.78;;;14.47;61.59
68822;BME280;55834;50.870;4.606;2022-10-24T12:39:52;100140.13;;;14.50;62.03
68822;BME280;55834;50.870;4.606;2022-10-24T12:44:44;100144.72;;;15.11;60.75
68822;BME280;55834;50.870;4.606;2022-10-24T12:47:37;100132.44;;;15.40;59.56
68822;BME280;55834;50.870;4.606;2022-10-24T12:58:18;100152.06;;;14.74;61.46
68822;BME280;55834;50.870;4.606;2022-10-24T13:00:56;100144.03;;;14.92;60.40
68822;BME280;55834;50.870;4.606;2022-10-24T13:06:07;100150.34;;;15.05;60.96
68822;BME280;55834;50.870;4.606;2022-10-24T13:08:46;100154.22;;;14.68;61.83
68822;BME280;55834;50.870;4.606;2022-10-24T13:14:21;100145.59;;;14.47;62.83
68822;BME280;55834;50.870;4.606;2022-10-24T13:19:24;100141.94;;;15.12;59.93
68822;BME280;55834;50.870;4.606;2022-10-24T13:21:52;100137.84;;;15.23;60.72
68822;BME280;55834;50.870;4.606;2022-10-24T13:24:33;100139.56;;;15.54;60.47
68822;BME280;55834;50.870;4.606;2022-10-24T13:32:21;100130.31;;;15.61;59.81
68822;BME280;55834;50.870;4.606;2022-10-24T13:37:34;100129.44;;;15.15;61.10
68822;BME280;55834;50.870;4.606;2022-10-24T13:40:16;100127.19;;;14.75;61.11
68822;BME280;55834;50.870;4.606;2022-10-24T13:43:02;100130.72;;;14.76;61.30
68822;BME280;55834;50.870;4.606;2022-10-24T13:45:40;100132.78;;;14.86;61.11
68822;BME280;55834;50.870;4.606;2022-10-24T13:48:14;100119.97;;;15.25;60.21
68822;BME280;55834;50.870;4.606;2022-10-24T13:50:48;100120.81;;;15.41;60.69
68822;BME280;55834;50.870;4.606;2022-10-24T13:53:29;100128.81;;;15.41;59.10
68822;BME280;55834;50.870;4.606;2022-10-24T13:56:04;100136.28;;;15.34;60.07
68822;BME280;55834;50.870;4.606;2022-10-24T13:58:39;100144.84;;;15.24;60.23
68822;BME280;55834;50.870;4.606;2022-10-24T14:01:13;100136.91;;;14.92;61.30
68822;BME280;55834;50.870;4.606;2022-10-24T14:03:42;100124.94;;;15.91;58.54
68822;BME280;55834;50.870;4.606;2022-10-24T14:08:45;100133.00;;;16.34;56.72
68822;BME280;55834;50.870;4.606;2022-10-24T14:11:18;100136.69;;;15.27;59.68
68822;BME280;55834;50.870;4.606;2022-10-24T14:13:50;100130.59;;;16.01;57.38
68822;BME280;55834;50.870;4.606;2022-10-24T14:16:25;100139.72;;;15.67;58.31
68822;BME280;55834;50.870;4.606;2022-10-24T14:19:08;100133.50;;;16.27;56.58
68822;BME280;55834;50.870;4.606;2022-10-24T14:21:40;100131.00;;;16.38;56.03
68822;BME280;55834;50.870;4.606;2022-10-24T14:24:08;100143.84;;;16.17;56.98
68822;BME280;55834;50.870;4.606;2022-10-24T14:26:36;100135.78;;;16.02;57.20
68822;BME280;55834;50.870;4.606;2022-10-24T14:29:04;100135.66;;;16.20;56.82
68822;BME280;55834;50.870;4.606;2022-10-24T14:31:31;100143.25;;;16.26;56.32
68822;BME280;55834;50.870;4.606;2022-10-24T14:34:03;100141.75;;;15.47;57.75
68822;BME280;55834;50.870;4.606;2022-10-24T14:36:31;100140.63;;;15.82;56.54
68822;BME280;55834;50.870;4.606;2022-10-24T14:38:58;100147.56;;;15.54;57.70
68822;BME280;55834;50.870;4.606;2022-10-24T14:41:38;100142.28;;;15.98;57.07
68822;BME280;55834;50.870;4.606;2022-10-24T14:44:06;100140.34;;;15.86;56.21
68822;BME280;55834;50.870;4.606;2022-10-24T14:46:36;100151.88;;;16.01;56.52
68822;BME280;55834;50.870;4.606;2022-10-24T14:49:28;100155.16;;;15.76;57.65